| time (UTC) | temp C | wind direction | speed KPH | gust KPH | rain 1hr cm | rain 24hr cm | rain mn cm | humidity % | barometer mb |
| 20260906174523 | 26 | 153 | 11.3 | 27.4 | 0.00 | 0.00 | 0.00 | 61 | 1019.9 |
| 20260906173022 | 26 | 148 | 14.5 | 24.1 | 0.00 | 0.00 | 0.00 | 61 | 1020.0 |
| 20260906171519 | 25 | 133 | 6.4 | 16.1 | 0.00 | 0.00 | 0.00 | 66 | 1020.1 |
| 20260906170036 | 25 | 149 | 8.0 | 22.5 | 0.00 | 0.00 | 0.00 | 59 | 1020.4 |
| 20260906164519 | 25 | 142 | 8.0 | 19.3 | 0.00 | 0.00 | 0.00 | 66 | 1020.6 |
| 20260906163015 | 25 | 162 | 9.7 | 17.7 | 0.00 | 0.00 | 0.00 | 69 | 1020.5 |
| 20260906161512 | 25 | 190 | 8.0 | 19.3 | 0.00 | 0.00 | 0.00 | 69 | 1020.8 |
| 20260906160010 | 24 | 186 | 9.7 | 17.7 | 0.00 | 0.00 | 0.00 | 70 | 1020.6 |
| 20260906154517 | 23 | 118 | 9.7 | 17.7 | 0.00 | 0.00 | 0.00 | 75 | 1020.5 |
| 20260906153012 | 23 | 165 | 8.0 | 17.7 | 0.00 | 0.00 | 0.00 | 78 | 1020.6 |
| 20260906151501 | 23 | 148 | 9.7 | 16.1 | 0.00 | 0.00 | 0.00 | 81 | 1020.6 |
| 20260906150103 | 22 | 119 | 8.0 | 19.3 | 0.00 | 0.00 | 0.00 | 85 | 1020.5 |
| 20260906144554 | 22 | 129 | 4.8 | 16.1 | 0.00 | 0.00 | 0.00 | 87 | 1020.4 |
| 20260906143106 | 21 | 161 | 11.3 | 24.1 | 0.00 | 0.00 | 0.00 | 89 | 1020.2 |
| 20260906141545 | 20 | 161 | 4.8 | 9.7 | 0.00 | 0.00 | 0.00 | 94 | 1020.5 |
| 20260906140048 | 20 | 187 | 3.2 | 11.3 | 0.00 | 0.00 | 0.00 | 96 | 1020.5 |
| 20260906134551 | 19 | 145 | 8.0 | 12.9 | 0.00 | 0.00 | 0.00 | 97 | 1020.5 |
| 20260906133039 | 19 | 152 | 4.8 | 16.1 | 0.00 | 0.00 | 0.00 | 97 | 1020.1 |
| 20260906131536 | 18 | 147 | 4.8 | 12.9 | 0.00 | 0.00 | 0.00 | 97 | 1020.2 |
| 20260906130034 | 18 | 136 | 6.4 | 19.3 | 0.00 | 0.00 | 0.00 | 97 | 1019.8 |
| 20260906124541 | 18 | 133 | 9.7 | 17.7 | 0.00 | 0.00 | 0.00 | 97 | 1019.6 |
| 20260906123105 | 18 | 116 | 6.4 | 12.9 | 0.00 | 0.00 | 0.00 | 97 | 1019.8 |
| 20260906121532 | 18 | 99 | 3.2 | 11.3 | 0.00 | 0.00 | 0.00 | 97 | 1019.8 |
| 20260906120030 | 18 | 113 | 3.2 | 11.3 | 0.00 | 0.00 | 0.00 | 97 | 1019.5 |
| 20260906114530 | 18 | 125 | 4.8 | 11.3 | 0.00 | 0.00 | 0.00 | 97 | 1019.5 |
| 20260906113029 | 18 | 82 | 3.2 | 11.3 | 0.00 | 0.00 | 0.00 | 97 | 1019.4 |
| 20260906111531 | 18 | 82 | 3.2 | 8.0 | 0.00 | 0.00 | 0.00 | 97 | 1019.5 |
| 20260906110028 | 18 | 79 | 3.2 | 6.4 | 0.00 | 0.00 | 0.00 | 97 | 1019.6 |
| 20260906104531 | 18 | 74 | 4.8 | 9.7 | 0.00 | 0.00 | 0.00 | 97 | 1019.6 |
| 20260906103025 | 18 | 72 | 3.2 | 9.7 | 0.00 | 0.00 | 0.00 | 97 | 1019.3 |
| 20260906101523 | 18 | 49 | 4.8 | 8.0 | 0.00 | 0.00 | 0.00 | 96 | 1019.2 |
| 20260906100026 | 18 | 98 | 3.2 | 6.4 | 0.00 | 0.00 | 0.00 | 97 | 1018.8 |
| 20260906094522 | 17 | 143 | 1.6 | 4.8 | 0.00 | 0.00 | 0.00 | 96 | 1018.7 |
| 20260906093025 | 18 | 106 | 3.2 | 6.4 | 0.00 | 0.00 | 0.00 | 96 | 1018.8 |
| 20260906091520 | 18 | 73 | 3.2 | 6.4 | 0.00 | 0.00 | 0.00 | 96 | 1018.7 |
| 20260906090020 | 18 | 74 | 3.2 | 6.4 | 0.00 | 0.00 | 0.00 | 96 | 1018.8 |
| 20260906084520 | 18 | 59 | 4.8 | 8.0 | 0.00 | 0.00 | 0.00 | 96 | 1018.7 |
| 20260906083020 | 18 | 86 | 3.2 | 6.4 | 0.00 | 0.00 | 0.00 | 96 | 1018.4 |
| 20260906081516 | 18 | 100 | 1.6 | 4.8 | 0.00 | 0.00 | 0.00 | 96 | 1018.5 |
| 20260906080024 | 18 | 100 | 1.6 | 4.8 | 0.00 | 0.00 | 0.00 | 96 | 1018.6 |
| 20260906074515 | 18 | 86 | 3.2 | 4.8 | 0.00 | 0.00 | 0.00 | 96 | 1018.8 |
| 20260906073012 | 18 | 105 | 3.2 | 6.4 | 0.00 | 0.00 | 0.00 | 96 | 1018.8 |
| 20260906071510 | 18 | 113 | 1.6 | 4.8 | 0.00 | 0.00 | 0.00 | 96 | 1018.9 |
| 20260906070010 | 18 | 113 | 0.0 | 1.6 | 0.00 | 0.00 | 0.00 | 95 | 1019.0 |
| 20260906064509 | 18 | 113 | 0.0 | 3.2 | 0.00 | 0.00 | 0.00 | 95 | 1019.0 |
| 20260906063009 | 18 | 113 | 1.6 | 4.8 | 0.00 | 0.00 | 0.00 | 95 | 1019.1 |
| 20260906061508 | 18 | 89 | 3.2 | 6.4 | 0.00 | 0.00 | 0.00 | 95 | 1019.2 |
| 20260906060006 | 19 | 89 | 3.2 | 4.8 | 0.00 | 0.00 | 0.00 | 95 | 1019.1 |
| 20260906054506 | 19 | 158 | 0.0 | 3.2 | 0.00 | 0.00 | 0.00 | 95 | 1019.2 |
| 20260906053005 | 18 | 144 | 0.0 | 1.6 | 0.00 | 0.00 | 0.00 | 95 | 1019.2 |
| 20260906051505 | 18 | 144 | 0.0 | 3.2 | 0.00 | 0.00 | 0.00 | 95 | 1019.1 |
| 20260906050004 | 18 | 144 | 0.0 | 3.2 | 0.00 | 0.00 | 0.00 | 94 | 1019.1 |
| 20260906044502 | 19 | 155 | 1.6 | 3.2 | 0.00 | 0.00 | 0.00 | 95 | 1018.9 |
| 20260906043104 | 19 | 155 | 0.0 | 4.8 | 0.00 | 0.00 | 0.00 | 94 | 1018.8 |
| 20260906041602 | 19 | 155 | 1.6 | 3.2 | 0.00 | 0.00 | 0.00 | 94 | 1018.7 |
| 20260906040058 | 19 | 155 | 1.6 | 3.2 | 0.00 | 0.00 | 0.00 | 93 | 1018.6 |
| 20260906034557 | 19 | 155 | 1.6 | 4.8 | 0.00 | 0.00 | 0.00 | 93 | 1018.4 |
| 20260906033109 | 19 | 155 | 0.0 | 3.2 | 0.00 | 0.00 | 0.00 | 92 | 1018.3 |
| 20260906031555 | 19 | 155 | 1.6 | 4.8 | 0.00 | 0.00 | 0.00 | 92 | 1018.4 |
| 20260906030054 | 20 | 155 | 1.6 | 4.8 | 0.00 | 0.00 | 0.00 | 91 | 1018.4 |
| 20260906024556 | 20 | 155 | 1.6 | 4.8 | 0.00 | 0.00 | 0.00 | 90 | 1018.2 |
| 20260906023055 | 20 | 155 | 1.6 | 3.2 | 0.00 | 0.00 | 0.00 | 88 | 1017.9 |
| 20260906021552 | 21 | 155 | 1.6 | 4.8 | 0.00 | 0.00 | 0.00 | 88 | 1017.4 |
| 20260906020104 | 21 | 155 | 1.6 | 6.4 | 0.00 | 0.00 | 0.00 | 86 | 1017.2 |
| 20260906014552 | 21 | 117 | 0.0 | 6.4 | 0.00 | 0.00 | 0.00 | 85 | 1017.0 |
| 20260906013059 | 22 | 113 | 3.2 | 9.7 | 0.00 | 0.00 | 0.00 | 83 | 1016.4 |
| 20260906011601 | 22 | 105 | 4.8 | 12.9 | 0.00 | 0.00 | 0.00 | 82 | 1016.4 |
| 20260906010049 | 22 | 120 | 4.8 | 11.3 | 0.00 | 0.00 | 0.00 | 81 | 1016.4 |
| 20260906004555 | 23 | 88 | 4.8 | 14.5 | 0.00 | 0.00 | 0.00 | 80 | 1016.5 |
| 20260906003048 | 23 | 81 | 6.4 | 14.5 | 0.00 | 0.00 | 0.00 | 80 | 1016.6 |
| 20260906001550 | 24 | 105 | 6.4 | 12.9 | 0.00 | 0.00 | 0.00 | 78 | 1016.4 |
| 20260906000054 | 25 | 89 | 8.0 | 16.1 | 0.00 | 0.00 | 0.00 | 77 | 1016.4 |
| 20260905234548 | 25 | 113 | 8.0 | 16.1 | 0.00 | 0.00 | 0.00 | 76 | 1016.6 |
| 20260905233046 | 26 | 102 | 8.0 | 16.1 | 0.00 | 0.00 | 0.00 | 73 | 1016.4 |
| 20260905231545 | 26 | 101 | 8.0 | 16.1 | 0.00 | 0.00 | 0.00 | 72 | 1016.4 |
| 20260905230044 | 27 | 95 | 6.4 | 17.7 | 0.00 | 0.00 | 0.00 | 70 | 1016.5 |
| 20260905224550 | 27 | 105 | 6.4 | 12.9 | 0.00 | 0.00 | 0.00 | 68 | 1016.5 |
| 20260905223046 | 27 | 113 | 6.4 | 17.7 | 0.00 | 0.00 | 0.00 | 69 | 1016.6 |
| 20260905221542 | 27 | 104 | 1.6 | 6.4 | 0.00 | 0.00 | 0.00 | 69 | 1016.8 |
| 20260905220041 | 27 | 95 | 4.8 | 12.9 | 0.00 | 0.00 | 0.00 | 68 | 1016.9 |
| 20260905214538 | 27 | 76 | 3.2 | 6.4 | 0.00 | 0.00 | 0.00 | 69 | 1016.9 |
| 20260905213039 | 27 | 67 | 8.0 | 11.3 | 0.00 | 0.00 | 0.00 | 70 | 1017.1 |
| 20260905211544 | 26 | 38 | 0.0 | 4.8 | 0.00 | 0.00 | 0.00 | 74 | 1017.2 |
| 20260905210036 | 26 | 38 | 3.2 | 9.7 | 0.00 | 0.00 | 0.00 | 74 | 1017.2 |
| 20260905204538 | 26 | 213 | 0.0 | 4.8 | 0.00 | 0.00 | 0.00 | 71 | 1017.3 |
| 20260905203034 | 26 | 101 | 1.6 | 4.8 | 0.00 | 0.00 | 0.00 | 75 | 1017.5 |
| 20260905201532 | 26 | 101 | 0.0 | 4.8 | 0.00 | 0.00 | 0.00 | 74 | 1017.7 |
| 20260905200038 | 26 | 107 | 3.2 | 9.7 | 0.00 | 0.00 | 0.00 | 74 | 1017.7 |
| 20260905194531 | 26 | 214 | 1.6 | 9.7 | 0.00 | 0.00 | 0.00 | 75 | 1017.7 |
| 20260905193027 | 26 | 149 | 3.2 | 12.9 | 0.00 | 0.00 | 0.00 | 78 | 1017.7 |
| 20260905191527 | 25 | 149 | 3.2 | 11.3 | 0.00 | 0.00 | 0.00 | 78 | 1017.6 |
| 20260905190024 | 25 | 109 | 3.2 | 11.3 | 0.00 | 0.00 | 0.00 | 79 | 1017.6 |
| 20260905184542 | 25 | 120 | 3.2 | 6.4 | 0.00 | 0.00 | 0.00 | 81 | 1017.6 |
| 20260905183037 | 25 | 103 | 0.0 | 6.4 | 0.00 | 0.00 | 0.00 | 79 | 1017.7 |
| 20260905181522 | 25 | 135 | 0.0 | 6.4 | 0.00 | 0.00 | 0.00 | 80 | 1018.0 |
| 20260905180026 | 25 | 139 | 0.0 | 8.0 | 0.00 | 0.03 | 0.00 | 81 | 1018.0 |